Portada
METAR-TAF:

METAR-TAF

Aeropuertos :

Emmen, Suiza

latitud: 47-05-32N, longitud: 8-18-16E, altitud: 426 m

Observación

El informe se hizo hace 37 minutos, a las 01:50 UTC
Viento 8 kt del oeste-suroeste
Temperatura 1°C
Humedad 75%
Presión 1013 hPa
Visibilidad 10 km o más

METAR: LSME 270150Z AUTO 24008KT 9999NDV NCD 01/M03 Q1013 RMK

Hora: 03:27 (02:27 UTC)


TAF: falta

Observaciones y pronósticos meteorológicos de más de 4000 aeropuertos (mensajes METAR y TAF).

Los puntos amarillos y rojos representan las estaciones disponibles.

Ponga el ratón en el punto deseado para ver el nombre de la estación.

Haga clic para ver las observaciones y los pronósticos meteorológicos.

Para cambiar el mapa : haga clic en los botones verdes con una cruz de color negro para hacer un zoom, en el botón verde con un guión para alejar o en las flechas verdes para mapas adyacentes.


METAR-TAF: